createdAt,value
2023-01-15T00:00:12.242Z,99.80
2023-01-15T00:02:40.780Z,99.80
2023-01-15T00:05:10.222Z,99.80
2023-01-15T00:07:42.036Z,99.80
2023-01-15T00:10:14.039Z,99.70
2023-01-15T00:12:42.593Z,99.80
2023-01-15T00:15:14.582Z,99.70
2023-01-15T00:17:45.103Z,99.70
2023-01-15T00:20:15.969Z,99.80
2023-01-15T00:22:44.775Z,99.80
2023-01-15T00:25:31.030Z,99.90
2023-01-15T00:28:01.595Z,99.70
2023-01-15T00:30:37.592Z,99.70
2023-01-15T00:33:07.064Z,99.60
2023-01-15T00:35:35.248Z,99.70
2023-01-15T00:38:03.689Z,99.70
2023-01-15T00:40:32.053Z,99.70
2023-01-15T00:43:05.712Z,99.60
2023-01-15T00:45:35.817Z,99.70
2023-01-15T00:48:04.078Z,99.80
2023-01-15T00:50:32.800Z,99.80
2023-01-15T00:53:17.428Z,99.70
2023-01-15T00:55:45.546Z,99.70
2023-01-15T00:58:15.923Z,99.70
2023-01-15T01:00:46.337Z,99.80
2023-01-15T01:03:14.807Z,99.70
2023-01-15T01:05:43.008Z,99.90
2023-01-15T01:08:11.622Z,99.90
2023-01-15T01:10:40.083Z,99.90
2023-01-15T01:13:08.936Z,99.90
2023-01-15T01:15:37.731Z,99.90
2023-01-15T01:18:07.865Z,99.90
2023-01-15T01:20:41.147Z,99.90
2023-01-15T01:23:09.877Z,99.90
2023-01-15T01:25:38.084Z,99.90
2023-01-15T01:28:06.858Z,99.90
2023-01-15T01:30:34.977Z,99.90
2023-01-15T01:33:03.437Z,99.90
2023-01-15T01:35:33.270Z,99.90
2023-01-15T01:38:09.093Z,99.90
2023-01-15T01:40:41.615Z,99.90
2023-01-15T01:43:23.017Z,99.90
2023-01-15T01:45:51.489Z,99.90
2023-01-15T01:48:27.888Z,99.90
2023-01-15T01:51:15.286Z,99.90
2023-01-15T01:53:43.700Z,99.90
2023-01-15T01:56:17.555Z,99.90
2023-01-15T01:58:50.781Z,99.90
2023-01-15T02:01:19.732Z,99.90
2023-01-15T02:03:48.159Z,99.90
2023-01-15T02:06:18.593Z,99.90
2023-01-15T02:08:46.970Z,99.90
2023-01-15T02:11:19.241Z,99.90
2023-01-15T02:13:54.802Z,99.80
2023-01-15T02:16:28.321Z,99.70
2023-01-15T02:19:02.485Z,99.70
2023-01-15T02:21:44.876Z,99.90
2023-01-15T02:24:18.818Z,99.50
2023-01-15T02:27:05.192Z,99.40
2023-01-15T02:29:43.679Z,99.30
2023-01-15T02:32:18.831Z,99.20
2023-01-15T02:34:51.721Z,99.00
2023-01-15T02:37:25.444Z,98.60
2023-01-15T02:39:55.926Z,98.70
2023-01-15T02:42:28.742Z,98.50
2023-01-15T02:45:00.201Z,98.60
2023-01-15T02:47:31.844Z,98.50
2023-01-15T02:50:03.205Z,98.20
2023-01-15T02:52:36.572Z,98.20
2023-01-15T02:55:09.862Z,98.20
2023-01-15T02:57:43.031Z,98.30
2023-01-15T03:00:15.428Z,98.30
2023-01-15T03:02:47.381Z,98.50
2023-01-15T03:05:21.936Z,98.50
2023-01-15T03:07:54.309Z,98.50
2023-01-15T03:10:33.469Z,98.40
2023-01-15T03:13:05.236Z,98.30
2023-01-15T03:18:47.724Z,98.30
2023-01-15T03:21:20.764Z,98.00
2023-01-15T03:23:54.170Z,98.30
2023-01-15T03:26:22.550Z,98.40
2023-01-15T03:28:52.999Z,98.10
2023-01-15T03:31:21.485Z,98.20
2023-01-15T03:33:50.339Z,98.10
2023-01-15T03:36:21.931Z,98.20
2023-01-15T03:38:52.824Z,98.20
2023-01-15T03:41:30.111Z,98.10
2023-01-15T03:44:08.722Z,98.20
2023-01-15T03:46:59.274Z,98.40
2023-01-15T03:49:40.068Z,98.00
2023-01-15T03:52:28.293Z,98.00
2023-01-15T03:55:05.050Z,98.10
2023-01-15T03:57:40.927Z,98.00
2023-01-15T04:00:22.070Z,97.80
2023-01-15T04:02:51.268Z,98.00
2023-01-15T04:05:23.287Z,97.80
2023-01-15T04:08:05.228Z,98.30
2023-01-15T04:10:34.717Z,98.20
2023-01-15T04:13:03.534Z,98.40
2023-01-15T04:15:34.174Z,98.40
2023-01-15T04:18:06.459Z,98.60
2023-01-15T04:20:35.363Z,98.60
2023-01-15T04:23:05.832Z,98.50
2023-01-15T04:25:34.511Z,98.90
2023-01-15T04:28:20.981Z,98.70
2023-01-15T04:30:53.234Z,98.70
2023-01-15T04:33:28.872Z,98.90
2023-01-15T04:36:02.496Z,98.70
2023-01-15T04:38:47.867Z,98.60
2023-01-15T04:41:35.520Z,98.80
2023-01-15T04:44:09.176Z,98.80
2023-01-15T04:46:47.970Z,98.70
2023-01-15T04:49:19.943Z,98.80
2023-01-15T04:51:51.511Z,98.90
2023-01-15T04:54:22.507Z,98.90
2023-01-15T04:56:54.879Z,98.80
2023-01-15T04:59:29.022Z,99.10
2023-01-15T05:02:06.032Z,98.90
2023-01-15T05:04:56.620Z,98.80
2023-01-15T05:07:29.089Z,98.90
2023-01-15T05:09:57.832Z,98.90
2023-01-15T05:12:26.543Z,98.80
2023-01-15T05:14:54.940Z,98.90
2023-01-15T05:17:25.008Z,98.90
2023-01-15T05:19:53.392Z,99.00
2023-01-15T05:22:21.807Z,99.10
2023-01-15T05:24:50.446Z,99.10
2023-01-15T05:27:19.183Z,99.10
2023-01-15T05:29:48.019Z,99.00
2023-01-15T05:32:16.745Z,99.10
2023-01-15T05:34:49.831Z,99.00
2023-01-15T05:37:18.324Z,99.00
2023-01-15T05:39:49.368Z,99.10
2023-01-15T05:42:17.762Z,99.00
2023-01-15T05:44:46.602Z,99.00
2023-01-15T05:47:15.469Z,99.10
2023-01-15T05:49:44.074Z,99.10
2023-01-15T05:52:13.985Z,99.10
2023-01-15T05:54:42.450Z,99.10
2023-01-15T05:57:13.277Z,99.00
2023-01-15T05:59:43.001Z,99.10
2023-01-15T06:02:12.757Z,99.10
2023-01-15T06:04:44.607Z,99.10
2023-01-15T06:07:21.462Z,99.20
2023-01-15T06:09:49.920Z,99.00
2023-01-15T06:12:23.960Z,99.10
2023-01-15T06:14:57.224Z,99.10
2023-01-15T06:17:37.610Z,99.10
2023-01-15T06:20:06.997Z,99.10
2023-01-15T06:22:40.380Z,99.10
2023-01-15T06:25:16.487Z,99.00
2023-01-15T06:28:00.113Z,99.00
2023-01-15T06:30:39.478Z,99.00
2023-01-15T06:33:17.647Z,99.00
2023-01-15T06:36:00.781Z,99.00
2023-01-15T06:38:42.326Z,99.10
2023-01-15T06:41:29.165Z,99.00
2023-01-15T06:44:18.188Z,99.10
2023-01-15T06:47:08.270Z,99.00
2023-01-15T06:49:41.689Z,99.00
2023-01-15T06:57:52.911Z,99.00
2023-01-15T07:06:09.465Z,99.00
2023-01-15T07:08:37.955Z,99.00
2023-01-15T07:11:07.409Z,99.00
2023-01-15T07:13:38.236Z,99.00
2023-01-15T07:16:27.073Z,99.10
2023-01-15T07:18:56.689Z,99.10
2023-01-15T07:21:24.849Z,99.10
2023-01-15T07:23:53.385Z,99.10
2023-01-15T07:26:22.076Z,99.00
2023-01-15T07:28:52.113Z,99.00
2023-01-15T07:31:20.495Z,99.00
2023-01-15T07:33:49.033Z,99.00
2023-01-15T07:36:17.611Z,99.00
2023-01-15T07:38:46.079Z,99.10
2023-01-15T07:41:31.577Z,99.10
2023-01-15T07:44:18.716Z,99.10
2023-01-15T07:47:04.398Z,99.10
2023-01-15T07:49:48.424Z,99.10
2023-01-15T07:52:17.843Z,99.10
2023-01-15T07:54:46.466Z,99.10
2023-01-15T07:57:16.622Z,99.10
2023-01-15T07:59:46.523Z,99.10
2023-01-15T08:02:15.166Z,99.00
2023-01-15T08:04:43.792Z,99.00
2023-01-15T08:07:13.171Z,99.20
2023-01-15T08:09:41.603Z,99.10
2023-01-15T08:12:28.855Z,99.10
2023-01-15T08:15:17.100Z,99.10
2023-01-15T08:17:47.470Z,99.10
2023-01-15T08:20:17.271Z,99.10
2023-01-15T08:22:51.281Z,99.10
2023-01-15T08:25:21.530Z,99.10
2023-01-15T08:27:50.169Z,99.10
2023-01-15T08:30:22.059Z,99.10
2023-01-15T08:32:50.561Z,99.10
2023-01-15T08:35:18.964Z,99.10
2023-01-15T08:37:47.594Z,99.10
2023-01-15T08:40:16.001Z,99.10
2023-01-15T08:42:44.036Z,99.10
2023-01-15T08:45:13.252Z,99.10
2023-01-15T08:47:42.904Z,99.10
2023-01-15T08:50:12.014Z,99.10
2023-01-15T08:52:40.282Z,99.40
2023-01-15T08:55:09.054Z,99.10
2023-01-15T08:57:38.749Z,99.00
2023-01-15T09:00:08.600Z,99.10
2023-01-15T09:02:36.647Z,99.00
2023-01-15T09:05:07.827Z,99.00
2023-01-15T09:07:37.334Z,99.00
2023-01-15T09:10:06.294Z,99.10
2023-01-15T09:12:37.656Z,99.00
2023-01-15T09:15:07.025Z,99.10
2023-01-15T09:17:39.782Z,99.10
2023-01-15T09:20:13.010Z,99.00
2023-01-15T09:22:41.040Z,99.00
2023-01-15T09:25:09.883Z,99.00
2023-01-15T09:27:38.213Z,99.00
2023-01-15T09:30:09.307Z,99.00
2023-01-15T09:32:38.067Z,99.00
2023-01-15T09:35:08.854Z,99.00
2023-01-15T09:37:38.661Z,99.00
2023-01-15T09:40:09.421Z,99.00
2023-01-15T09:42:50.615Z,99.00
2023-01-15T09:45:25.323Z,99.00
2023-01-15T09:48:07.948Z,99.10
2023-01-15T09:50:47.639Z,99.10
2023-01-15T09:53:28.983Z,99.10
2023-01-15T09:55:58.452Z,99.10
2023-01-15T09:58:33.976Z,99.10
2023-01-15T10:01:04.716Z,99.10
2023-01-15T10:03:40.271Z,99.10
2023-01-15T10:06:17.637Z,99.10
2023-01-15T10:08:49.469Z,99.10
2023-01-15T10:11:52.864Z,99.10
2023-01-15T10:14:39.828Z,99.10
2023-01-15T10:17:22.916Z,99.10
2023-01-15T10:19:51.622Z,99.10
2023-01-15T10:22:39.201Z,99.20
2023-01-15T10:25:17.777Z,99.20
2023-01-15T10:27:53.462Z,99.20
2023-01-15T10:30:37.177Z,99.20
2023-01-15T10:33:20.065Z,99.20
2023-01-15T10:35:55.462Z,99.20
2023-01-15T10:38:32.276Z,99.30
2023-01-15T10:41:16.479Z,99.20
2023-01-15T10:43:51.810Z,99.20
2023-01-15T10:46:23.563Z,99.20
2023-01-15T10:48:55.296Z,99.10
2023-01-15T10:51:25.539Z,99.10
2023-01-15T10:53:57.450Z,99.00
2023-01-15T10:56:35.066Z,99.00
2023-01-15T10:59:14.899Z,99.00
2023-01-15T11:01:43.244Z,99.00
2023-01-15T11:04:13.925Z,99.00
2023-01-15T11:06:42.453Z,99.00
2023-01-15T11:09:20.594Z,99.00
2023-01-15T11:12:10.111Z,99.00
2023-01-15T11:14:57.715Z,99.00
2023-01-15T11:17:47.300Z,98.90
2023-01-15T11:20:26.871Z,99.00
2023-01-15T11:22:58.627Z,99.00
2023-01-15T11:25:29.245Z,98.90
2023-01-15T11:27:59.909Z,99.00
2023-01-15T11:30:32.160Z,98.90
2023-01-15T11:33:04.242Z,99.00
2023-01-15T11:35:33.819Z,98.90
2023-01-15T11:38:06.767Z,98.90
2023-01-15T11:40:35.520Z,98.90
2023-01-15T11:43:39.321Z,98.90
2023-01-15T11:46:38.254Z,98.90
2023-01-15T11:49:27.318Z,98.90
2023-01-15T11:52:21.775Z,98.80
2023-01-15T11:54:54.765Z,98.80
2023-01-15T11:57:31.339Z,98.80
2023-01-15T12:00:11.269Z,98.80
2023-01-15T12:02:43.896Z,98.70
2023-01-15T12:05:19.579Z,98.80
2023-01-15T12:07:49.685Z,98.80
2023-01-15T12:10:53.323Z,98.80
2023-01-15T12:13:32.953Z,98.70
2023-01-15T12:16:12.602Z,98.70
2023-01-15T12:18:58.196Z,98.60
2023-01-15T12:21:54.755Z,98.60
2023-01-15T12:25:01.260Z,98.60
2023-01-15T12:28:04.190Z,98.70
2023-01-15T12:30:40.659Z,98.60
2023-01-15T12:33:39.757Z,98.60
2023-01-15T12:36:14.913Z,98.60
2023-01-15T12:39:06.911Z,98.50
2023-01-15T12:41:58.047Z,98.50
2023-01-15T12:44:55.311Z,98.50
2023-01-15T12:47:29.325Z,98.50
2023-01-15T12:50:28.497Z,98.50
2023-01-15T12:53:13.243Z,98.40
2023-01-15T12:55:47.663Z,98.40
2023-01-15T12:58:28.700Z,98.40
2023-01-15T13:01:13.826Z,98.30
2023-01-15T13:03:57.393Z,98.30
2023-01-15T13:06:28.719Z,98.40
2023-01-15T13:09:04.958Z,98.40
2023-01-15T13:11:37.688Z,98.40
2023-01-15T13:14:14.274Z,98.30
2023-01-15T13:16:47.693Z,98.30
2023-01-15T13:19:27.084Z,98.30
2023-01-15T13:21:59.340Z,98.30
2023-01-15T13:24:57.215Z,98.20
2023-01-15T13:27:47.027Z,98.10
2023-01-15T13:30:32.097Z,98.20
2023-01-15T13:33:13.627Z,98.10
2023-01-15T13:35:49.657Z,98.00
2023-01-15T13:38:20.377Z,98.00
2023-01-15T13:40:54.155Z,98.10
2023-01-15T13:43:35.616Z,97.90
2023-01-15T13:46:06.529Z,97.90
2023-01-15T13:48:37.298Z,97.00
2023-01-15T13:51:08.026Z,97.00
2023-01-15T13:53:39.136Z,97.00
2023-01-15T13:56:12.672Z,97.10
2023-01-15T13:58:43.566Z,97.20
2023-01-15T14:01:25.858Z,97.20
2023-01-15T14:04:04.108Z,97.30
2023-01-15T14:06:44.118Z,97.30
2023-01-15T14:09:14.116Z,97.30
2023-01-15T14:12:05.034Z,97.20
2023-01-15T14:15:18.882Z,97.30
2023-01-15T14:18:09.178Z,97.20
2023-01-15T14:20:52.652Z,97.30
2023-01-15T14:23:32.138Z,97.30
2023-01-15T14:26:17.560Z,97.20
2023-01-15T14:29:02.062Z,97.30
2023-01-15T14:31:56.889Z,97.30
2023-01-15T14:34:27.053Z,97.20
2023-01-15T14:36:59.973Z,97.20
2023-01-15T14:39:32.681Z,97.20
2023-01-15T14:42:26.280Z,97.30
2023-01-15T14:45:07.247Z,97.10
2023-01-15T14:47:46.261Z,97.20
2023-01-15T14:50:44.167Z,97.20
2023-01-15T14:53:33.541Z,97.20
2023-01-15T14:56:07.072Z,97.10
2023-01-15T14:58:41.650Z,97.30
2023-01-15T15:01:20.332Z,97.00
2023-01-15T15:03:55.054Z,97.10
2023-01-15T15:06:23.996Z,97.10
2023-01-15T15:08:55.453Z,97.20
2023-01-15T15:11:54.698Z,96.90
2023-01-15T15:14:27.897Z,97.00
2023-01-15T15:17:02.708Z,97.00
2023-01-15T15:19:36.506Z,97.20
2023-01-15T15:22:08.131Z,97.00
2023-01-15T15:24:45.460Z,97.00
2023-01-15T15:27:18.754Z,97.00
2023-01-15T15:29:46.968Z,97.00
2023-01-15T15:32:24.527Z,97.00
2023-01-15T15:34:54.948Z,97.20
2023-01-15T15:37:27.429Z,96.90
2023-01-15T15:40:04.822Z,97.00
2023-01-15T15:42:53.948Z,97.00
2023-01-15T15:45:43.492Z,97.00
2023-01-15T15:48:37.433Z,96.80
2023-01-15T15:51:06.623Z,97.00
2023-01-15T15:53:34.856Z,97.00
2023-01-15T15:56:03.459Z,96.90
2023-01-15T15:58:35.256Z,96.90
2023-01-15T16:01:03.915Z,97.00
2023-01-15T16:03:48.541Z,97.00
2023-01-15T16:06:23.296Z,96.80
2023-01-15T16:08:55.197Z,96.80
2023-01-15T16:11:27.497Z,96.80
2023-01-15T16:13:59.278Z,96.70
2023-01-15T16:16:29.419Z,96.80
2023-01-15T16:19:07.512Z,97.00
2023-01-15T16:21:54.377Z,97.00
2023-01-15T16:24:28.304Z,97.00
2023-01-15T16:27:08.045Z,96.80
2023-01-15T16:29:37.245Z,96.90
2023-01-15T16:32:24.215Z,97.00
2023-01-15T16:35:01.565Z,97.00
2023-01-15T16:37:31.611Z,97.00
2023-01-15T16:40:02.390Z,96.90
2023-01-15T16:42:35.713Z,96.90
2023-01-15T16:45:07.098Z,96.90
2023-01-15T16:47:37.051Z,96.90
2023-01-15T16:50:37.611Z,96.90
2023-01-15T16:53:06.717Z,97.00
2023-01-15T16:55:43.921Z,97.00
2023-01-15T16:58:32.383Z,97.00
2023-01-15T17:01:02.379Z,96.90
2023-01-15T17:03:33.005Z,97.00
2023-01-15T17:06:16.913Z,96.90
2023-01-15T17:08:51.760Z,96.90
2023-01-15T17:11:22.537Z,96.80
2023-01-15T17:13:50.823Z,96.90
2023-01-15T17:16:21.451Z,97.00
2023-01-15T17:18:50.719Z,96.90
2023-01-15T17:21:23.432Z,96.90
2023-01-15T17:23:54.418Z,97.00
2023-01-15T17:26:26.239Z,97.00
2023-01-15T17:28:54.416Z,96.80
2023-01-15T17:31:30.106Z,96.90
2023-01-15T17:34:06.233Z,96.80
2023-01-15T17:37:01.230Z,96.90
2023-01-15T17:39:29.595Z,96.90
2023-01-15T17:41:58.498Z,96.90
2023-01-15T17:44:28.389Z,96.90
2023-01-15T17:46:56.484Z,96.90
2023-01-15T17:49:30.844Z,96.80
2023-01-15T17:52:01.474Z,96.80
2023-01-15T17:54:44.634Z,96.80
2023-01-15T17:57:32.740Z,96.80
2023-01-15T18:00:24.986Z,96.80
2023-01-15T18:03:10.649Z,97.10
2023-01-15T18:05:43.647Z,96.80
2023-01-15T18:08:14.663Z,96.70
2023-01-15T18:10:43.029Z,96.80
2023-01-15T18:13:22.747Z,96.90
2023-01-15T18:15:52.956Z,96.90
2023-01-15T18:18:24.666Z,96.90
2023-01-15T18:21:01.163Z,96.70
2023-01-15T18:23:35.334Z,96.70
2023-01-15T18:26:05.433Z,96.80
2023-01-15T18:28:40.796Z,96.80
2023-01-15T18:31:12.350Z,96.80
2023-01-15T18:33:42.095Z,96.80
2023-01-15T18:36:15.311Z,96.70
2023-01-15T18:38:47.548Z,96.80
2023-01-15T18:41:38.759Z,96.80
2023-01-15T18:44:26.448Z,96.70
2023-01-15T18:46:56.713Z,96.80
2023-01-15T18:49:32.606Z,96.80
2023-01-15T18:52:20.292Z,96.80
2023-01-15T18:54:56.786Z,96.90
2023-01-15T18:57:27.916Z,96.80
2023-01-15T19:00:01.424Z,96.90
2023-01-15T19:02:29.569Z,96.90
2023-01-15T19:04:58.390Z,96.90
2023-01-15T19:07:27.035Z,97.00
2023-01-15T19:10:00.661Z,97.00
2023-01-15T19:12:28.862Z,97.00
2023-01-15T19:15:14.716Z,97.00
2023-01-15T19:17:59.997Z,97.00
2023-01-15T19:20:30.745Z,97.00
2023-01-15T19:23:05.774Z,97.00
2023-01-15T19:25:39.684Z,95.90
2023-01-15T19:28:08.848Z,96.60
2023-01-15T19:30:39.917Z,96.80
2023-01-15T19:33:10.847Z,96.80
2023-01-15T19:35:42.414Z,96.80
2023-01-15T19:38:22.278Z,96.90
2023-01-15T19:40:52.801Z,96.80
2023-01-15T19:43:42.260Z,96.80
2023-01-15T19:46:28.679Z,96.90
2023-01-15T19:49:14.473Z,96.90
2023-01-15T19:51:56.312Z,97.00
2023-01-15T19:54:38.122Z,96.90
2023-01-15T19:57:09.610Z,96.90
2023-01-15T19:59:41.099Z,96.90
2023-01-15T20:02:09.639Z,97.00
2023-01-15T20:04:39.173Z,97.00
2023-01-15T20:07:07.504Z,96.90
2023-01-15T20:09:37.123Z,96.90
2023-01-15T20:12:31.040Z,96.90
2023-01-15T20:14:59.273Z,97.00
2023-01-15T20:17:30.527Z,96.90
2023-01-15T20:19:59.820Z,97.00
2023-01-15T20:22:30.282Z,97.00
2023-01-15T20:24:58.892Z,97.00
2023-01-15T20:27:32.226Z,97.00
2023-01-15T20:30:02.082Z,97.00
2023-01-15T20:32:31.471Z,97.00
2023-01-15T20:35:00.145Z,97.00
2023-01-15T20:37:34.807Z,97.10
2023-01-15T20:40:04.458Z,97.00
2023-01-15T20:42:59.516Z,97.00
2023-01-15T20:45:28.130Z,97.00
2023-01-15T20:48:13.690Z,97.00
2023-01-15T20:50:44.963Z,97.10
2023-01-15T20:53:15.728Z,97.00
2023-01-15T20:55:55.936Z,97.10
2023-01-15T20:58:27.269Z,97.00
2023-01-15T21:01:02.433Z,97.00
2023-01-15T21:03:30.470Z,97.00
2023-01-15T21:05:58.907Z,97.00
2023-01-15T21:08:27.000Z,97.00
2023-01-15T21:10:57.240Z,97.00
2023-01-15T21:13:29.297Z,97.00
2023-01-15T21:15:59.152Z,97.00
2023-01-15T21:18:27.765Z,97.00
2023-01-15T21:20:56.746Z,97.10
2023-01-15T21:23:25.274Z,97.00
2023-01-15T21:26:01.098Z,97.00
2023-01-15T21:28:31.019Z,97.00
2023-01-15T21:31:01.235Z,97.00
2023-01-15T21:33:29.409Z,97.00
2023-01-15T21:35:58.054Z,97.00
2023-01-15T21:38:26.231Z,97.00
2023-01-15T21:40:54.399Z,97.00
2023-01-15T21:43:40.961Z,97.00
2023-01-15T21:46:10.554Z,97.10
2023-01-15T21:48:38.948Z,97.00
2023-01-15T21:51:07.732Z,97.00
2023-01-15T21:53:36.185Z,97.00
2023-01-15T21:56:05.117Z,97.00
2023-01-15T21:58:37.468Z,97.00
2023-01-15T22:01:11.358Z,97.10
2023-01-15T22:03:39.970Z,97.10
2023-01-15T22:06:09.921Z,97.00
2023-01-15T22:08:38.372Z,97.00
2023-01-15T22:11:11.138Z,97.00
2023-01-15T22:13:40.956Z,96.90
2023-01-15T22:16:10.703Z,96.90
2023-01-15T22:18:41.016Z,96.90
2023-01-15T22:21:15.338Z,96.90
2023-01-15T22:23:44.120Z,97.00
2023-01-15T22:26:18.480Z,97.00
2023-01-15T22:28:46.657Z,97.00
2023-01-15T22:31:18.066Z,97.00
2023-01-15T22:33:47.318Z,97.00
2023-01-15T22:36:17.064Z,97.00
2023-01-15T22:38:46.346Z,97.00
2023-01-15T22:41:14.593Z,97.00
2023-01-15T22:43:42.828Z,97.00
2023-01-15T22:46:13.008Z,97.00
2023-01-15T22:48:42.790Z,97.00
2023-01-15T22:51:10.811Z,96.90
2023-01-15T22:53:38.839Z,97.10
2023-01-15T22:56:08.042Z,97.00
2023-01-15T22:58:36.456Z,97.00
2023-01-15T23:01:05.354Z,96.90
2023-01-15T23:03:36.360Z,97.00
2023-01-15T23:06:07.924Z,97.00
2023-01-15T23:08:36.733Z,97.10
2023-01-15T23:11:12.374Z,97.00
2023-01-15T23:13:41.979Z,97.00
2023-01-15T23:16:11.218Z,97.00
2023-01-15T23:18:39.430Z,97.00
2023-01-15T23:21:11.193Z,97.00
2023-01-15T23:23:40.010Z,97.10
2023-01-15T23:26:09.236Z,97.00
2023-01-15T23:28:38.803Z,97.00
2023-01-15T23:31:07.364Z,97.10
2023-01-15T23:33:35.871Z,97.00
2023-01-15T23:36:06.025Z,97.00
2023-01-15T23:38:35.783Z,97.10
2023-01-15T23:41:07.721Z,97.00
2023-01-15T23:44:04.819Z,97.10
2023-01-15T23:46:36.083Z,97.10
2023-01-15T23:49:06.556Z,97.00
2023-01-15T23:51:35.394Z,97.10
2023-01-15T23:54:06.013Z,97.00
2023-01-15T23:56:34.768Z,97.00
2023-01-15T23:59:02.966Z,97.00
